sensor_id;sensor_type;location;lat;lon;timestamp;pressure;altitude;pressure_sealevel;temperature
8533;BMP280;4304;53.876;10.662;2023-04-24T00:00:45;100007.34;;;13.10
8533;BMP280;4304;53.876;10.662;2023-04-24T00:03:11;100009.72;;;13.13
8533;BMP280;4304;53.876;10.662;2023-04-24T00:05:37;100003.53;;;13.14
8533;BMP280;4304;53.876;10.662;2023-04-24T00:08:05;100001.75;;;13.14
8533;BMP280;4304;53.876;10.662;2023-04-24T00:10:31;99999.13;;;13.14
8533;BMP280;4304;53.876;10.662;2023-04-24T00:12:56;100011.19;;;13.15
8533;BMP280;4304;53.876;10.662;2023-04-24T00:15:22;100007.22;;;13.11
8533;BMP280;4304;53.876;10.662;2023-04-24T00:17:47;100010.09;;;13.08
8533;BMP280;4304;53.876;10.662;2023-04-24T00:20:12;99996.66;;;13.03
8533;BMP280;4304;53.876;10.662;2023-04-24T00:22:40;100011.88;;;12.98
8533;BMP280;4304;53.876;10.662;2023-04-24T00:25:05;100048.38;;;12.98
8533;BMP280;4304;53.876;10.662;2023-04-24T00:27:31;100030.09;;;12.89
8533;BMP280;4304;53.876;10.662;2023-04-24T00:29:56;100028.88;;;12.83
8533;BMP280;4304;53.876;10.662;2023-04-24T00:32:21;100029.66;;;12.75
8533;BMP280;4304;53.876;10.662;2023-04-24T00:34:47;100032.53;;;12.72
8533;BMP280;4304;53.876;10.662;2023-04-24T00:37:12;100016.31;;;12.68
8533;BMP280;4304;53.876;10.662;2023-04-24T00:39:37;100013.16;;;12.65
8533;BMP280;4304;53.876;10.662;2023-04-24T00:42:03;100007.53;;;12.60
8533;BMP280;4304;53.876;10.662;2023-04-24T00:44:31;99997.22;;;12.58
8533;BMP280;4304;53.876;10.662;2023-04-24T00:46:56;100008.03;;;12.54
8533;BMP280;4304;53.876;10.662;2023-04-24T00:49:22;99995.16;;;12.52
8533;BMP280;4304;53.876;10.662;2023-04-24T00:51:47;99988.13;;;12.53
8533;BMP280;4304;53.876;10.662;2023-04-24T00:54:15;99981.31;;;12.52
8533;BMP280;4304;53.876;10.662;2023-04-24T00:56:41;99981.31;;;12.52
8533;BMP280;4304;53.876;10.662;2023-04-24T00:59:07;99983.22;;;12.50
8533;BMP280;4304;53.876;10.662;2023-04-24T01:01:33;99991.84;;;12.50
8533;BMP280;4304;53.876;10.662;2023-04-24T01:03:58;99987.47;;;12.51
8533;BMP280;4304;53.876;10.662;2023-04-24T01:06:27;99984.97;;;12.49
8533;BMP280;4304;53.876;10.662;2023-04-24T01:08:54;99984.69;;;12.34
8533;BMP280;4304;53.876;10.662;2023-04-24T01:11:21;99970.25;;;12.30
8533;BMP280;4304;53.876;10.662;2023-04-24T01:13:47;99965.72;;;12.22
8533;BMP280;4304;53.876;10.662;2023-04-24T01:16:13;99971.00;;;12.11
8533;BMP280;4304;53.876;10.662;2023-04-24T01:18:39;99972.63;;;12.03
8533;BMP280;4304;53.876;10.662;2023-04-24T01:21:05;99970.81;;;12.03
8533;BMP280;4304;53.876;10.662;2023-04-24T01:23:31;99958.72;;;11.93
8533;BMP280;4304;53.876;10.662;2023-04-24T01:25:56;99962.03;;;11.95
8533;BMP280;4304;53.876;10.662;2023-04-24T01:28:22;99951.59;;;11.95
8533;BMP280;4304;53.876;10.662;2023-04-24T01:30:48;99951.06;;;11.92
8533;BMP280;4304;53.876;10.662;2023-04-24T01:33:14;99951.06;;;11.92
8533;BMP280;4304;53.876;10.662;2023-04-24T01:35:40;99949.38;;;11.91
8533;BMP280;4304;53.876;10.662;2023-04-24T01:38:05;99937.72;;;11.85
8533;BMP280;4304;53.876;10.662;2023-04-24T01:40:31;99930.34;;;11.90
8533;BMP280;4304;53.876;10.662;2023-04-24T01:42:57;99936.22;;;11.83
8533;BMP280;4304;53.876;10.662;2023-04-24T01:45:23;99938.81;;;11.83
8533;BMP280;4304;53.876;10.662;2023-04-24T01:47:49;99934.25;;;11.75
8533;BMP280;4304;53.876;10.662;2023-04-24T01:50:15;99955.75;;;11.77
8533;BMP280;4304;53.876;10.662;2023-04-24T01:52:40;99945.03;;;11.71
8533;BMP280;4304;53.876;10.662;2023-04-24T01:55:06;99956.56;;;11.68
8533;BMP280;4304;53.876;10.662;2023-04-24T01:57:33;99944.47;;;11.67
8533;BMP280;4304;53.876;10.662;2023-04-24T01:59:58;99947.19;;;11.66
8533;BMP280;4304;53.876;10.662;2023-04-24T02:02:24;99946.25;;;11.67
8533;BMP280;4304;53.876;10.662;2023-04-24T02:04:55;99938.03;;;11.62
8533;BMP280;4304;53.876;10.662;2023-04-24T02:07:20;99941.56;;;11.61
8533;BMP280;4304;53.876;10.662;2023-04-24T02:09:45;99934.03;;;11.58
8533;BMP280;4304;53.876;10.662;2023-04-24T02:12:11;99927.38;;;11.65
8533;BMP280;4304;53.876;10.662;2023-04-24T02:14:36;99932.88;;;11.71
8533;BMP280;4304;53.876;10.662;2023-04-24T02:17:01;99932.47;;;11.76
8533;BMP280;4304;53.876;10.662;2023-04-24T02:19:27;99934.59;;;11.61
8533;BMP280;4304;53.876;10.662;2023-04-24T02:21:52;99938.91;;;11.72
8533;BMP280;4304;53.876;10.662;2023-04-24T02:24:17;99926.75;;;11.52
8533;BMP280;4304;53.876;10.662;2023-04-24T02:26:43;99934.09;;;11.47
8533;BMP280;4304;53.876;10.662;2023-04-24T02:29:08;99925.56;;;11.45
8533;BMP280;4304;53.876;10.662;2023-04-24T02:31:33;99922.97;;;11.45
8533;BMP280;4304;53.876;10.662;2023-04-24T02:33:59;99927.97;;;11.37
8533;BMP280;4304;53.876;10.662;2023-04-24T02:36:24;99917.00;;;11.34
8533;BMP280;4304;53.876;10.662;2023-04-24T02:38:49;99923.59;;;11.38
8533;BMP280;4304;53.876;10.662;2023-04-24T02:41:15;99921.38;;;11.33
8533;BMP280;4304;53.876;10.662;2023-04-24T02:43:40;99922.97;;;11.25
8533;BMP280;4304;53.876;10.662;2023-04-24T02:46:05;99917.88;;;11.23
8533;BMP280;4304;53.876;10.662;2023-04-24T02:48:31;99915.81;;;11.17
8533;BMP280;4304;53.876;10.662;2023-04-24T02:50:56;99906.13;;;11.08
8533;BMP280;4304;53.876;10.662;2023-04-24T02:53:22;99915.47;;;11.11
8533;BMP280;4304;53.876;10.662;2023-04-24T02:55:48;99907.81;;;11.09
8533;BMP280;4304;53.876;10.662;2023-04-24T02:58:13;99909.84;;;11.06
8533;BMP280;4304;53.876;10.662;2023-04-24T03:00:39;99917.75;;;11.05
8533;BMP280;4304;53.876;10.662;2023-04-24T03:03:04;99909.50;;;11.00
8533;BMP280;4304;53.876;10.662;2023-04-24T03:05:30;99911.53;;;10.96
8533;BMP280;4304;53.876;10.662;2023-04-24T03:07:56;99912.72;;;10.92
8533;BMP280;4304;53.876;10.662;2023-04-24T03:10:21;99924.31;;;10.88
8533;BMP280;4304;53.876;10.662;2023-04-24T03:12:50;99919.38;;;10.85
8533;BMP280;4304;53.876;10.662;2023-04-24T03:15:15;99915.84;;;10.86
8533;BMP280;4304;53.876;10.662;2023-04-24T03:17:40;99905.34;;;10.77
8533;BMP280;4304;53.876;10.662;2023-04-24T03:20:07;99910.53;;;10.77
8533;BMP280;4304;53.876;10.662;2023-04-24T03:22:33;99918.81;;;10.71
8533;BMP280;4304;53.876;10.662;2023-04-24T03:24:59;99925.31;;;10.76
8533;BMP280;4304;53.876;10.662;2023-04-24T03:27:24;99936.31;;;10.69
8533;BMP280;4304;53.876;10.662;2023-04-24T03:29:49;99923.56;;;10.66
8533;BMP280;4304;53.876;10.662;2023-04-24T03:32:19;99926.66;;;10.60
8533;BMP280;4304;53.876;10.662;2023-04-24T03:34:44;99932.09;;;10.57
8533;BMP280;4304;53.876;10.662;2023-04-24T03:37:10;99927.38;;;10.51
8533;BMP280;4304;53.876;10.662;2023-04-24T03:39:35;99927.03;;;10.56
8533;BMP280;4304;53.876;10.662;2023-04-24T03:42:00;99927.28;;;10.53
8533;BMP280;4304;53.876;10.662;2023-04-24T03:44:26;99931.78;;;10.51
8533;BMP280;4304;53.876;10.662;2023-04-24T03:46:51;99911.00;;;10.40
8533;BMP280;4304;53.876;10.662;2023-04-24T03:49:17;99921.84;;;10.45
8533;BMP280;4304;53.876;10.662;2023-04-24T03:51:42;99922.25;;;10.40
8533;BMP280;4304;53.876;10.662;2023-04-24T03:54:07;99922.00;;;10.43
8533;BMP280;4304;53.876;10.662;2023-04-24T03:56:33;99923.63;;;10.44
8533;BMP280;4304;53.876;10.662;2023-04-24T03:58:58;99927.44;;;10.40
8533;BMP280;4304;53.876;10.662;2023-04-24T04:01:23;99928.59;;;10.36
8533;BMP280;4304;53.876;10.662;2023-04-24T04:03:49;99923.19;;;10.28
8533;BMP280;4304;53.876;10.662;2023-04-24T04:06:14;99922.25;;;10.29
8533;BMP280;4304;53.876;10.662;2023-04-24T04:08:40;99912.22;;;10.25
8533;BMP280;4304;53.876;10.662;2023-04-24T04:11:05;99911.28;;;10.26
8533;BMP280;4304;53.876;10.662;2023-04-24T04:13:31;99922.47;;;10.26
8533;BMP280;4304;53.876;10.662;2023-04-24T04:15:56;99920.59;;;10.28
8533;BMP280;4304;53.876;10.662;2023-04-24T04:18:21;99924.03;;;10.29
8533;BMP280;4304;53.876;10.662;2023-04-24T04:20:47;99917.97;;;10.39
8533;BMP280;4304;53.876;10.662;2023-04-24T04:23:12;99926.13;;;10.35
8533;BMP280;4304;53.876;10.662;2023-04-24T04:25:37;99927.22;;;10.32
8533;BMP280;4304;53.876;10.662;2023-04-24T04:28:03;99916.81;;;10.22
8533;BMP280;4304;53.876;10.662;2023-04-24T04:30:28;99926.16;;;10.24
8533;BMP280;4304;53.876;10.662;2023-04-24T04:32:57;99923.19;;;10.28
8533;BMP280;4304;53.876;10.662;2023-04-24T04:35:22;99923.78;;;10.32
8533;BMP280;4304;53.876;10.662;2023-04-24T04:37:48;99923.41;;;10.36
8533;BMP280;4304;53.876;10.662;2023-04-24T04:40:13;99925.53;;;10.42
8533;BMP280;4304;53.876;10.662;2023-04-24T04:42:38;99935.19;;;10.51
8533;BMP280;4304;53.876;10.662;2023-04-24T04:45:07;99917.22;;;10.59
8533;BMP280;4304;53.876;10.662;2023-04-24T04:47:34;99933.00;;;10.78
8533;BMP280;4304;53.876;10.662;2023-04-24T04:50:00;99934.09;;;10.96
8533;BMP280;4304;53.876;10.662;2023-04-24T04:52:25;99938.34;;;11.17
8533;BMP280;4304;53.876;10.662;2023-04-24T04:54:50;99939.09;;;11.19
8533;BMP280;4304;53.876;10.662;2023-04-24T04:57:16;99934.28;;;11.04
8533;BMP280;4304;53.876;10.662;2023-04-24T04:59:41;99936.75;;;11.05
8533;BMP280;4304;53.876;10.662;2023-04-24T05:02:07;99931.47;;;10.96
8533;BMP280;4304;53.876;10.662;2023-04-24T05:04:32;99929.50;;;11.19
8533;BMP280;4304;53.876;10.662;2023-04-24T05:06:57;99931.28;;;11.80
8533;BMP280;4304;53.876;10.662;2023-04-24T05:09:23;99931.44;;;12.27
8533;BMP280;4304;53.876;10.662;2023-04-24T05:11:48;99927.31;;;12.73
8533;BMP280;4304;53.876;10.662;2023-04-24T05:14:14;99932.41;;;13.21
8533;BMP280;4304;53.876;10.662;2023-04-24T05:16:39;99945.41;;;13.59
8533;BMP280;4304;53.876;10.662;2023-04-24T05:19:05;99944.00;;;13.73
8533;BMP280;4304;53.876;10.662;2023-04-24T05:21:31;99943.09;;;13.92
8533;BMP280;4304;53.876;10.662;2023-04-24T05:23:56;99948.28;;;14.01
8533;BMP280;4304;53.876;10.662;2023-04-24T05:26:22;99949.25;;;14.00
8533;BMP280;4304;53.876;10.662;2023-04-24T05:28:48;99944.75;;;13.93
8533;BMP280;4304;53.876;10.662;2023-04-24T05:31:13;99947.06;;;14.05
8533;BMP280;4304;53.876;10.662;2023-04-24T05:33:38;99951.34;;;14.33
8533;BMP280;4304;53.876;10.662;2023-04-24T05:36:05;99955.84;;;14.67
8533;BMP280;4304;53.876;10.662;2023-04-24T05:38:31;99947.47;;;14.63
8533;BMP280;4304;53.876;10.662;2023-04-24T05:40:56;99946.38;;;15.00
8533;BMP280;4304;53.876;10.662;2023-04-24T05:43:22;99972.72;;;15.34
8533;BMP280;4304;53.876;10.662;2023-04-24T05:45:47;99961.91;;;15.54
8533;BMP280;4304;53.876;10.662;2023-04-24T05:48:12;99971.34;;;15.12
8533;BMP280;4304;53.876;10.662;2023-04-24T05:50:38;99970.78;;;15.18
8533;BMP280;4304;53.876;10.662;2023-04-24T05:53:03;99961.88;;;14.67
8533;BMP280;4304;53.876;10.662;2023-04-24T05:55:30;99952.41;;;14.13
8533;BMP280;4304;53.876;10.662;2023-04-24T05:57:56;99955.69;;;14.15
8533;BMP280;4304;53.876;10.662;2023-04-24T06:00:21;99948.84;;;14.14
8533;BMP280;4304;53.876;10.662;2023-04-24T06:02:46;99973.31;;;14.04
8533;BMP280;4304;53.876;10.662;2023-04-24T06:05:12;99968.88;;;14.50
8533;BMP280;4304;53.876;10.662;2023-04-24T06:07:37;99968.41;;;14.98
8533;BMP280;4304;53.876;10.662;2023-04-24T06:10:03;99987.81;;;15.22
8533;BMP280;4304;53.876;10.662;2023-04-24T06:12:28;99999.00;;;15.67
8533;BMP280;4304;53.876;10.662;2023-04-24T06:14:53;99993.41;;;15.87
8533;BMP280;4304;53.876;10.662;2023-04-24T06:17:20;100021.06;;;16.07
8533;BMP280;4304;53.876;10.662;2023-04-24T06:19:45;100022.69;;;16.25
8533;BMP280;4304;53.876;10.662;2023-04-24T06:22:11;100062.41;;;16.71
8533;BMP280;4304;53.876;10.662;2023-04-24T06:24:36;100057.91;;;16.97
8533;BMP280;4304;53.876;10.662;2023-04-24T06:27:01;100053.19;;;17.00
8533;BMP280;4304;53.876;10.662;2023-04-24T06:29:27;100041.69;;;17.01
8533;BMP280;4304;53.876;10.662;2023-04-24T06:31:53;100046.28;;;17.07
8533;BMP280;4304;53.876;10.662;2023-04-24T06:34:18;100024.06;;;16.78
8533;BMP280;4304;53.876;10.662;2023-04-24T06:36:44;100024.09;;;16.86
8533;BMP280;4304;53.876;10.662;2023-04-24T06:39:09;100019.44;;;17.29
8533;BMP280;4304;53.876;10.662;2023-04-24T06:41:35;100023.91;;;17.52
8533;BMP280;4304;53.876;10.662;2023-04-24T06:44:01;100038.19;;;17.42
8533;BMP280;4304;53.876;10.662;2023-04-24T06:46:26;100050.41;;;17.17
8533;BMP280;4304;53.876;10.662;2023-04-24T06:48:53;100060.53;;;17.61
8533;BMP280;4304;53.876;10.662;2023-04-24T06:51:25;100052.13;;;17.26
8533;BMP280;4304;53.876;10.662;2023-04-24T06:53:54;100032.44;;;17.62
8533;BMP280;4304;53.876;10.662;2023-04-24T06:56:21;100078.41;;;17.42
8533;BMP280;4304;53.876;10.662;2023-04-24T06:58:46;100029.63;;;17.24
8533;BMP280;4304;53.876;10.662;2023-04-24T07:01:12;100034.06;;;17.39
8533;BMP280;4304;53.876;10.662;2023-04-24T07:03:37;100048.22;;;17.62
8533;BMP280;4304;53.876;10.662;2023-04-24T07:06:03;100026.84;;;17.57
8533;BMP280;4304;53.876;10.662;2023-04-24T07:08:29;100043.28;;;17.59
8533;BMP280;4304;53.876;10.662;2023-04-24T07:10:58;100005.69;;;17.58
8533;BMP280;4304;53.876;10.662;2023-04-24T07:13:24;100042.97;;;17.86
8533;BMP280;4304;53.876;10.662;2023-04-24T07:15:49;100067.59;;;18.08
8533;BMP280;4304;53.876;10.662;2023-04-24T07:18:16;100020.31;;;17.61
8533;BMP280;4304;53.876;10.662;2023-04-24T07:20:41;100036.22;;;17.75
8533;BMP280;4304;53.876;10.662;2023-04-24T07:23:10;100033.25;;;18.18
8533;BMP280;4304;53.876;10.662;2023-04-24T07:25:35;100045.88;;;18.06
8533;BMP280;4304;53.876;10.662;2023-04-24T07:28:01;100043.78;;;17.94
8533;BMP280;4304;53.876;10.662;2023-04-24T07:30:26;100025.69;;;17.36
8533;BMP280;4304;53.876;10.662;2023-04-24T07:32:53;100031.44;;;17.47
8533;BMP280;4304;53.876;10.662;2023-04-24T07:35:19;100008.16;;;17.76
8533;BMP280;4304;53.876;10.662;2023-04-24T07:37:45;100035.38;;;18.14
8533;BMP280;4304;53.876;10.662;2023-04-24T07:40:12;100055.22;;;18.33
8533;BMP280;4304;53.876;10.662;2023-04-24T07:42:38;100050.13;;;18.39
8533;BMP280;4304;53.876;10.662;2023-04-24T07:45:03;100049.03;;;18.10
8533;BMP280;4304;53.876;10.662;2023-04-24T07:47:29;100051.13;;;18.06
8533;BMP280;4304;53.876;10.662;2023-04-24T07:49:54;100057.59;;;18.12
8533;BMP280;4304;53.876;10.662;2023-04-24T07:52:20;100067.75;;;18.23
8533;BMP280;4304;53.876;10.662;2023-04-24T07:54:45;100070.22;;;17.85
8533;BMP280;4304;53.876;10.662;2023-04-24T07:57:10;100046.53;;;17.29
8533;BMP280;4304;53.876;10.662;2023-04-24T07:59:36;100004.97;;;16.60
8533;BMP280;4304;53.876;10.662;2023-04-24T08:02:01;99989.56;;;16.65
8533;BMP280;4304;53.876;10.662;2023-04-24T08:04:26;99989.34;;;16.18
8533;BMP280;4304;53.876;10.662;2023-04-24T08:06:52;99982.78;;;16.14
8533;BMP280;4304;53.876;10.662;2023-04-24T08:09:17;100002.59;;;16.82
8533;BMP280;4304;53.876;10.662;2023-04-24T08:11:43;100028.41;;;17.03
8533;BMP280;4304;53.876;10.662;2023-04-24T08:14:09;100041.97;;;16.82
8533;BMP280;4304;53.876;10.662;2023-04-24T08:16:34;100018.56;;;16.56
8533;BMP280;4304;53.876;10.662;2023-04-24T08:19:00;100013.94;;;16.91
8533;BMP280;4304;53.876;10.662;2023-04-24T08:21:25;100029.97;;;16.80
8533;BMP280;4304;53.876;10.662;2023-04-24T08:23:52;100064.63;;;17.40
8533;BMP280;4304;53.876;10.662;2023-04-24T08:26:18;100064.31;;;17.51
8533;BMP280;4304;53.876;10.662;2023-04-24T08:28:44;100040.53;;;17.11
8533;BMP280;4304;53.876;10.662;2023-04-24T08:31:09;100005.47;;;16.64
8533;BMP280;4304;53.876;10.662;2023-04-24T08:33:35;100024.06;;;16.78
8533;BMP280;4304;53.876;10.662;2023-04-24T08:36:05;100028.91;;;16.65
8533;BMP280;4304;53.876;10.662;2023-04-24T08:38:30;100013.50;;;16.62
8533;BMP280;4304;53.876;10.662;2023-04-24T08:40:58;100045.63;;;17.13
8533;BMP280;4304;53.876;10.662;2023-04-24T08:43:24;100052.50;;;17.63
8533;BMP280;4304;53.876;10.662;2023-04-24T08:45:51;100042.13;;;17.61
8533;BMP280;4304;53.876;10.662;2023-04-24T08:48:17;100095.38;;;17.79
8533;BMP280;4304;53.876;10.662;2023-04-24T08:50:43;100075.69;;;17.10
8533;BMP280;4304;53.876;10.662;2023-04-24T08:53:10;100059.06;;;16.94
8533;BMP280;4304;53.876;10.662;2023-04-24T08:55:35;100072.97;;;17.36
8533;BMP280;4304;53.876;10.662;2023-04-24T08:58:02;100066.63;;;16.97
8533;BMP280;4304;53.876;10.662;2023-04-24T09:00:28;100089.13;;;17.08
8533;BMP280;4304;53.876;10.662;2023-04-24T09:02:54;100088.34;;;16.74
8533;BMP280;4304;53.876;10.662;2023-04-24T09:05:22;100054.19;;;16.66
8533;BMP280;4304;53.876;10.662;2023-04-24T09:07:54;100028.34;;;16.46
8533;BMP280;4304;53.876;10.662;2023-04-24T09:10:21;100084.41;;;16.78
8533;BMP280;4304;53.876;10.662;2023-04-24T09:12:47;100044.91;;;16.46
8533;BMP280;4304;53.876;10.662;2023-04-24T09:15:12;100058.91;;;15.87
8533;BMP280;4304;53.876;10.662;2023-04-24T09:17:38;100023.75;;;15.72
8533;BMP280;4304;53.876;10.662;2023-04-24T09:20:04;100006.31;;;15.81
8533;BMP280;4304;53.876;10.662;2023-04-24T09:22:30;100022.53;;;16.09
8533;BMP280;4304;53.876;10.662;2023-04-24T09:25:03;100042.50;;;16.61
8533;BMP280;4304;53.876;10.662;2023-04-24T09:27:29;100056.84;;;16.41
8533;BMP280;4304;53.876;10.662;2023-04-24T09:29:55;100062.88;;;16.33
8533;BMP280;4304;53.876;10.662;2023-04-24T09:32:22;100040.59;;;16.37
8533;BMP280;4304;53.876;10.662;2023-04-24T09:34:47;100040.59;;;16.37
8533;BMP280;4304;53.876;10.662;2023-04-24T09:37:29;100031.25;;;16.68
8533;BMP280;4304;53.876;10.662;2023-04-24T09:40:15;100072.34;;;17.50
8533;BMP280;4304;53.876;10.662;2023-04-24T09:42:54;100095.69;;;17.68
8533;BMP280;4304;53.876;10.662;2023-04-24T09:45:20;100101.59;;;17.86
8533;BMP280;4304;53.876;10.662;2023-04-24T09:47:51;100101.25;;;17.57
8533;BMP280;4304;53.876;10.662;2023-04-24T09:50:17;100074.16;;;16.92
8533;BMP280;4304;53.876;10.662;2023-04-24T09:52:59;100086.63;;;16.65
8533;BMP280;4304;53.876;10.662;2023-04-24T09:55:26;100063.13;;;16.48
8533;BMP280;4304;53.876;10.662;2023-04-24T09:57:55;100065.81;;;16.13
8533;BMP280;4304;53.876;10.662;2023-04-24T10:00:25;100094.75;;;16.04
8533;BMP280;4304;53.876;10.662;2023-04-24T10:02:58;100054.28;;;16.06
8533;BMP280;4304;53.876;10.662;2023-04-24T10:05:31;100067.53;;;16.47
8533;BMP280;4304;53.876;10.662;2023-04-24T10:08:03;100064.53;;;16.67
8533;BMP280;4304;53.876;10.662;2023-04-24T10:10:30;100051.00;;;16.88
8533;BMP280;4304;53.876;10.662;2023-04-24T10:12:56;100074.13;;;17.33
8533;BMP280;4304;53.876;10.662;2023-04-24T10:15:21;100060.88;;;17.82
8533;BMP280;4304;53.876;10.662;2023-04-24T10:17:50;100097.69;;;18.14
8533;BMP280;4304;53.876;10.662;2023-04-24T10:20:22;100101.75;;;17.85
8533;BMP280;4304;53.876;10.662;2023-04-24T10:22:50;100108.69;;;17.94
8533;BMP280;4304;53.876;10.662;2023-04-24T10:25:20;100131.72;;;18.15
8533;BMP280;4304;53.876;10.662;2023-04-24T10:27:46;100108.00;;;18.07
8533;BMP280;4304;53.876;10.662;2023-04-24T10:30:12;100118.34;;;17.69
8533;BMP280;4304;53.876;10.662;2023-04-24T10:32:38;100098.13;;;17.13
8533;BMP280;4304;53.876;10.662;2023-04-24T10:35:06;100082.25;;;16.73
8533;BMP280;4304;53.876;10.662;2023-04-24T10:37:37;100070.75;;;17.08
8533;BMP280;4304;53.876;10.662;2023-04-24T10:40:03;100098.09;;;16.97
8533;BMP280;4304;53.876;10.662;2023-04-24T10:42:29;100039.25;;;17.15
8533;BMP280;4304;53.876;10.662;2023-04-24T10:44:54;100044.25;;;17.26
8533;BMP280;4304;53.876;10.662;2023-04-24T10:47:20;100105.66;;;17.57
8533;BMP280;4304;53.876;10.662;2023-04-24T10:49:46;100091.66;;;16.92
8533;BMP280;4304;53.876;10.662;2023-04-24T10:52:15;100075.03;;;17.09
8533;BMP280;4304;53.876;10.662;2023-04-24T10:54:45;100085.19;;;16.70
8533;BMP280;4304;53.876;10.662;2023-04-24T11:00:55;100113.47;;;16.51
8533;BMP280;4304;53.876;10.662;2023-04-24T11:02:57;100111.91;;;16.66
8533;BMP280;4304;53.876;10.662;2023-04-24T11:05:48;100132.03;;;16.66
8533;BMP280;4304;53.876;10.662;2023-04-24T11:08:21;100115.28;;;16.59
8533;BMP280;4304;53.876;10.662;2023-04-24T11:10:47;100151.19;;;16.58
8533;BMP280;4304;53.876;10.662;2023-04-24T11:13:21;100110.63;;;16.45
8533;BMP280;4304;53.876;10.662;2023-04-24T11:16:28;100069.97;;;16.82
8533;BMP280;4304;53.876;10.662;2023-04-24T11:21:32;100137.09;;;17.82
8533;BMP280;4304;53.876;10.662;2023-04-24T11:23:58;100130.69;;;17.93
8533;BMP280;4304;53.876;10.662;2023-04-24T11:26:23;100140.53;;;17.75
8533;BMP280;4304;53.876;10.662;2023-04-24T11:29:06;100116.16;;;17.33
8533;BMP280;4304;53.876;10.662;2023-04-24T11:31:39;100055.53;;;16.78
8533;BMP280;4304;53.876;10.662;2023-04-24T11:34:10;100087.59;;;17.38
8533;BMP280;4304;53.876;10.662;2023-04-24T11:36:36;100077.94;;;17.94
8533;BMP280;4304;53.876;10.662;2023-04-24T11:39:02;100122.66;;;18.26
8533;BMP280;4304;53.876;10.662;2023-04-24T11:41:28;100113.72;;;17.63
8533;BMP280;4304;53.876;10.662;2023-04-24T11:43:54;100126.13;;;17.22
8533;BMP280;4304;53.876;10.662;2023-04-24T11:46:21;100094.78;;;16.87
8533;BMP280;4304;53.876;10.662;2023-04-24T11:48:46;100101.50;;;16.90
8533;BMP280;4304;53.876;10.662;2023-04-24T11:51:13;100066.97;;;17.02
8533;BMP280;4304;53.876;10.662;2023-04-24T11:53:38;100059.69;;;16.88
8533;BMP280;4304;53.876;10.662;2023-04-24T11:56:04;100077.09;;;16.97
8533;BMP280;4304;53.876;10.662;2023-04-24T11:58:44;100107.72;;;16.81
8533;BMP280;4304;53.876;10.662;2023-04-24T12:01:09;100063.50;;;16.94
8533;BMP280;4304;53.876;10.662;2023-04-24T12:03:35;100080.94;;;17.10
8533;BMP280;4304;53.876;10.662;2023-04-24T12:06:07;100117.50;;;17.53
8533;BMP280;4304;53.876;10.662;2023-04-24T12:08:33;100094.69;;;17.93
8533;BMP280;4304;53.876;10.662;2023-04-24T12:11:03;100085.34;;;17.91
8533;BMP280;4304;53.876;10.662;2023-04-24T12:13:29;100104.75;;;18.13
8533;BMP280;4304;53.876;10.662;2023-04-24T12:15:54;100142.50;;;18.52
8533;BMP280;4304;53.876;10.662;2023-04-24T12:18:24;100133.84;;;18.20
8533;BMP280;4304;53.876;10.662;2023-04-24T12:20:49;100128.72;;;18.10
8533;BMP280;4304;53.876;10.662;2023-04-24T12:23:15;100101.63;;;18.10
8533;BMP280;4304;53.876;10.662;2023-04-24T12:25:41;100107.53;;;17.72
8533;BMP280;4304;53.876;10.662;2023-04-24T12:30:39;100122.75;;;17.53
8533;BMP280;4304;53.876;10.662;2023-04-24T12:33:05;100097.47;;;17.52
8533;BMP280;4304;53.876;10.662;2023-04-24T12:35:32;100094.03;;;17.52
8533;BMP280;4304;53.876;10.662;2023-04-24T12:38:16;100089.78;;;17.74
8533;BMP280;4304;53.876;10.662;2023-04-24T12:40:46;100089.13;;;17.64
8533;BMP280;4304;53.876;10.662;2023-04-24T12:43:19;100064.66;;;17.07
8533;BMP280;4304;53.876;10.662;2023-04-24T12:45:45;100047.06;;;16.84
8533;BMP280;4304;53.876;10.662;2023-04-24T12:48:11;100044.47;;;17.00
8533;BMP280;4304;53.876;10.662;2023-04-24T12:50:36;100118.00;;;17.08
8533;BMP280;4304;53.876;10.662;2023-04-24T12:53:02;100100.69;;;16.89
8533;BMP280;4304;53.876;10.662;2023-04-24T12:55:28;100104.22;;;16.72
8533;BMP280;4304;53.876;10.662;2023-04-24T12:57:53;100101.38;;;16.58
8533;BMP280;4304;53.876;10.662;2023-04-24T13:00:20;100080.63;;;16.47
8533;BMP280;4304;53.876;10.662;2023-04-24T13:02:45;100103.94;;;16.50
8533;BMP280;4304;53.876;10.662;2023-04-24T13:05:11;100104.41;;;16.21
8533;BMP280;4304;53.876;10.662;2023-04-24T13:07:38;100122.66;;;16.30
8533;BMP280;4304;53.876;10.662;2023-04-24T13:10:04;100112.03;;;16.31
8533;BMP280;4304;53.876;10.662;2023-04-24T13:12:30;100087.13;;;16.35
8533;BMP280;4304;53.876;10.662;2023-04-24T13:14:55;100070.81;;;16.49
8533;BMP280;4304;53.876;10.662;2023-04-24T13:17:21;100081.53;;;16.64
8533;BMP280;4304;53.876;10.662;2023-04-24T13:19:49;100057.78;;;16.65
8533;BMP280;4304;53.876;10.662;2023-04-24T13:22:44;100081.09;;;16.68
8533;BMP280;4304;53.876;10.662;2023-04-24T13:32:38;100068.53;;;16.46
8533;BMP280;4304;53.876;10.662;2023-04-24T13:36:15;100042.22;;;16.13
8533;BMP280;4304;53.876;10.662;2023-04-24T13:47:46;100031.19;;;15.59
8533;BMP280;4304;53.876;10.662;2023-04-24T13:50:11;100044.09;;;15.61
8533;BMP280;4304;53.876;10.662;2023-04-24T13:52:36;100038.69;;;15.54
8533;BMP280;4304;53.876;10.662;2023-04-24T13:55:02;100020.34;;;15.37
8533;BMP280;4304;53.876;10.662;2023-04-24T13:57:27;100016.66;;;15.47
8533;BMP280;4304;53.876;10.662;2023-04-24T13:59:53;100004.34;;;15.40
8533;BMP280;4304;53.876;10.662;2023-04-24T14:02:18;100005.59;;;15.36
8533;BMP280;4304;53.876;10.662;2023-04-24T14:04:44;100003.19;;;15.08
8533;BMP280;4304;53.876;10.662;2023-04-24T14:07:09;99988.97;;;14.93
8533;BMP280;4304;53.876;10.662;2023-04-24T14:09:35;99982.38;;;14.72
8533;BMP280;4304;53.876;10.662;2023-04-24T14:12:00;99973.56;;;14.73
8533;BMP280;4304;53.876;10.662;2023-04-24T14:14:27;99980.72;;;14.71
8533;BMP280;4304;53.876;10.662;2023-04-24T14:16:52;99980.34;;;14.39
8533;BMP280;4304;53.876;10.662;2023-04-24T14:19:17;99996.25;;;14.46
8533;BMP280;4304;53.876;10.662;2023-04-24T14:21:43;100019.69;;;14.38
8533;BMP280;4304;53.876;10.662;2023-04-24T14:24:08;100011.31;;;14.34
8533;BMP280;4304;53.876;10.662;2023-04-24T14:26:34;100012.22;;;14.16
8533;BMP280;4304;53.876;10.662;2023-04-24T14:28:59;99979.41;;;14.04
8533;BMP280;4304;53.876;10.662;2023-04-24T14:31:25;99964.00;;;13.92
8533;BMP280;4304;53.876;10.662;2023-04-24T14:33:50;99956.41;;;13.98
8533;BMP280;4304;53.876;10.662;2023-04-24T14:36:15;99959.44;;;14.03